Time;durP1;ratioP1;P1;durP2;ratioP2;P2;SDS_P1;SDS_P2;PMS_P1;PMS_P2;Temp;Humidity;BMP_temperature;BMP_pressure;BME280_temperature;BME280_humidity;BME280_pressure;Samples;Min_cycle;Max_cycle;Signal;HPM_P1;HPM_P2
2023/01/12 00:01:47;;;;;;;49.80;4.97;;;5.90;99.90;;;;;;4955252;28;20035;-69
2023/01/12 00:04:14;;;;;;;61.38;5.95;;;5.90;99.90;;;;;;4955758;29;20118;-69
2023/01/12 00:06:39;;;;;;;54.70;5.60;;;6.00;99.90;;;;;;4955134;28;20031;-69
2023/01/12 00:09:06;;;;;;;55.42;5.82;;;6.00;99.90;;;;;;4955374;29;20550;-69
2023/01/12 00:11:32;;;;;;;40.08;5.15;;;6.10;99.90;;;;;;4955384;28;20445;-69
2023/01/12 00:13:58;;;;;;;61.28;6.68;;;6.00;99.90;;;;;;4955481;28;20027;-69
2023/01/12 00:16:40;;;;;;;32.63;4.93;;;6.10;99.90;;;;;;4959300;29;20100;-69
2023/01/12 00:19:19;;;;;;;45.50;5.28;;;6.00;99.90;;;;;;4959388;29;20061;-69
2023/01/12 00:24:43;;;;;;;40.00;5.70;;;6.00;99.90;;;;;;4959761;29;20089;-69
2023/01/12 00:27:11;;;;;;;49.78;5.70;;;6.00;99.90;;;;;;4959222;29;20030;-69
2023/01/12 00:29:37;;;;;;;57.17;5.50;;;6.00;99.90;;;;;;4959182;29;20102;-69
2023/01/12 00:32:04;;;;;;;51.67;5.15;;;6.00;99.90;;;;;;4959618;28;20462;-69
2023/01/12 00:34:30;;;;;;;47.53;5.32;;;6.10;99.90;;;;;;4958960;29;20534;-69
2023/01/12 00:36:58;;;;;;;54.28;6.82;;;6.10;99.90;;;;;;4959133;29;20027;-69
2023/01/12 00:39:23;;;;;;;51.17;4.78;;;6.10;99.90;;;;;;4958969;28;20019;-69
2023/01/12 00:47:17;;;;;;;45.10;6.40;;;6.20;99.90;;;;;;4958858;29;20122;-69
2023/01/12 00:49:44;;;;;;;62.42;6.40;;;6.20;99.90;;;;;;4958797;29;20102;-69
2023/01/12 00:52:12;;;;;;;49.03;6.18;;;6.20;99.90;;;;;;4958487;28;20102;-69
2023/01/12 00:54:38;;;;;;;33.35;5.00;;;6.20;99.90;;;;;;4958788;29;20082;-69
2023/01/12 00:57:04;;;;;;;61.50;7.40;;;6.30;99.90;;;;;;4958621;29;20110;-69
2023/01/12 00:59:30;;;;;;;60.22;6.00;;;6.30;99.90;;;;;;4958723;29;20486;-69
2023/01/12 01:01:56;;;;;;;52.55;5.38;;;6.30;99.90;;;;;;4958247;28;20059;-69
2023/01/12 01:04:22;;;;;;;44.38;5.30;;;6.40;99.90;;;;;;4958775;29;20019;-69
2023/01/12 01:06:47;;;;;;;44.90;6.00;;;6.30;99.90;;;;;;4958311;29;20024;-69
2023/01/12 01:09:13;;;;;;;50.47;5.82;;;6.30;99.90;;;;;;4958725;29;20085;-69
2023/01/12 01:11:39;;;;;;;52.65;5.13;;;6.20;99.90;;;;;;4958230;28;20097;-69
2023/01/12 01:14:05;;;;;;;68.13;7.07;;;6.20;99.90;;;;;;4958213;29;20023;-69
2023/01/12 01:16:31;;;;;;;44.67;5.18;;;6.10;99.90;;;;;;4958261;29;20483;-69
2023/01/12 01:18:57;;;;;;;33.38;4.97;;;6.10;99.90;;;;;;4958285;28;20031;-69
2023/01/12 01:21:24;;;;;;;37.97;5.50;;;6.00;99.90;;;;;;4958363;28;20042;-69
2023/01/12 01:23:50;;;;;;;49.70;6.10;;;6.00;99.90;;;;;;4958014;28;20019;-68
2023/01/12 01:26:20;;;;;;;68.13;7.57;;;6.00;99.90;;;;;;4957207;28;20023;-68
2023/01/12 01:28:46;;;;;;;48.35;5.50;;;5.90;99.90;;;;;;4958301;29;20063;-68
2023/01/12 01:31:14;;;;;;;64.65;7.25;;;5.90;99.90;;;;;;4958241;28;20027;-69
2023/01/12 01:33:40;;;;;;;61.17;6.50;;;5.90;99.90;;;;;;4957904;29;20069;-69
2023/01/12 01:36:06;;;;;;;60.10;6.50;;;6.00;99.90;;;;;;4958282;29;20481;-69
2023/01/12 01:38:32;;;;;;;59.80;7.18;;;6.00;99.90;;;;;;4958141;29;20023;-69
2023/01/12 01:40:58;;;;;;;58.72;6.63;;;6.00;99.90;;;;;;4957919;29;20376;-68
2023/01/12 01:43:25;;;;;;;59.95;7.18;;;6.00;99.90;;;;;;4957597;28;20090;-69
2023/01/12 01:46:00;;;;;;;54.15;7.15;;;6.10;99.90;;;;;;4957667;28;20479;-69
2023/01/12 01:48:27;;;;;;;64.28;7.47;;;6.10;99.90;;;;;;4957861;29;20027;-69
2023/01/12 01:50:57;;;;;;;61.47;8.02;;;6.20;99.90;;;;;;4957926;29;20015;-69
2023/01/12 01:53:27;;;;;;;56.28;6.47;;;6.10;99.90;;;;;;4957532;28;20016;-69
2023/01/12 01:55:58;;;;;;;43.80;6.45;;;6.20;99.90;;;;;;4957392;28;20021;-69
2023/01/12 01:58:40;;;;;;;46.70;6.40;;;6.20;99.90;;;;;;4956758;29;20030;-69
2023/01/12 02:01:06;;;;;;;47.95;5.93;;;6.30;99.90;;;;;;4957241;29;20054;-69
2023/01/12 02:03:33;;;;;;;57.13;6.50;;;6.40;99.90;;;;;;4957311;28;20041;-69
2023/01/12 02:05:59;;;;;;;52.50;7.75;;;6.30;99.90;;;;;;4957500;29;20106;-69
2023/01/12 02:08:37;;;;;;;62.13;7.90;;;6.20;99.90;;;;;;4957273;29;20039;-69
2023/01/12 02:16:19;;;;;;;70.35;8.70;;;6.10;99.90;;;;;;4956167;29;20027;-69
2023/01/12 02:16:21;;;;;;;89.22;10.07;;;6.00;99.90;;;;;;5000030;23;20043;-70
2023/01/12 02:19:18;;;;;;;60.40;8.50;;;6.00;99.90;;;;;;4976382;28;20034;-69
2023/01/12 02:22:04;;;;;;;51.53;7.50;;;5.90;99.90;;;;;;4975779;28;20042;-69
2023/01/12 02:24:48;;;;;;;55.83;7.03;;;5.90;99.90;;;;;;4975827;28;20035;-69
2023/01/12 02:27:22;;;;;;;50.25;6.18;;;5.90;99.90;;;;;;4976229;28;20172;-69
2023/01/12 02:29:50;;;;;;;58.78;7.65;;;5.90;99.90;;;;;;4975818;28;20483;-70
2023/01/12 02:32:36;;;;;;;46.65;6.68;;;5.90;99.90;;;;;;4975663;28;20031;-69
2023/01/12 02:35:15;;;;;;;56.65;7.00;;;6.00;99.90;;;;;;4975684;28;20038;-69
2023/01/12 02:37:52;;;;;;;38.35;5.63;;;6.00;99.90;;;;;;4975603;28;20054;-69
2023/01/12 02:40:40;;;;;;;56.88;6.95;;;6.00;99.90;;;;;;4976029;28;20039;-69
2023/01/12 02:43:28;;;;;;;50.95;6.65;;;6.10;99.90;;;;;;4975635;28;20031;-69
2023/01/12 02:46:17;;;;;;;71.05;7.95;;;6.10;99.90;;;;;;4975556;28;20098;-69
2023/01/12 02:48:52;;;;;;;64.78;7.03;;;6.10;99.90;;;;;;4975888;28;20034;-69
2023/01/12 02:51:32;;;;;;;61.88;6.90;;;6.10;99.90;;;;;;4975616;28;20022;-69
2023/01/12 02:54:01;;;;;;;49.13;7.85;;;6.10;99.90;;;;;;4975482;28;20040;-69
2023/01/12 02:56:35;;;;;;;50.58;6.32;;;6.00;99.90;;;;;;4975408;28;20074;-69
2023/01/12 02:59:08;;;;;;;48.08;6.80;;;6.00;99.90;;;;;;4975634;28;20398;-69
2023/01/12 03:01:35;;;;;;;61.67;7.57;;;6.10;99.90;;;;;;4975803;28;20031;-69
2023/01/12 03:04:04;;;;;;;47.42;7.13;;;6.10;99.90;;;;;;4975213;28;20031;-69
2023/01/12 03:06:55;;;;;;;69.93;6.65;;;6.00;99.90;;;;;;4975464;28;20463;-69
2023/01/12 03:09:40;;;;;;;75.00;7.72;;;5.90;99.90;;;;;;4975175;28;20022;-69
2023/01/12 03:12:18;;;;;;;51.13;7.30;;;6.00;99.90;;;;;;4975731;28;20053;-69
2023/01/12 03:14:48;;;;;;;59.28;6.07;;;6.00;99.90;;;;;;4975044;28;20077;-69
2023/01/12 03:17:23;;;;;;;47.92;6.82;;;6.10;99.90;;;;;;4975025;28;20447;-69
2023/01/12 03:19:51;;;;;;;39.38;5.80;;;6.20;99.90;;;;;;4975275;28;20022;-69
2023/01/12 03:22:18;;;;;;;48.20;6.57;;;6.20;99.90;;;;;;4974843;28;20034;-69
2023/01/12 03:24:47;;;;;;;62.55;6.05;;;6.30;99.90;;;;;;4974992;28;20023;-69
2023/01/12 03:27:27;;;;;;;39.45;6.45;;;6.40;99.90;;;;;;4974878;28;20030;-69
2023/01/12 03:30:11;;;;;;;38.50;7.35;;;6.40;99.90;;;;;;4975136;28;20078;-69
2023/01/12 03:32:37;;;;;;;47.85;5.85;;;6.50;99.90;;;;;;4975016;28;20549;-69
2023/01/12 03:35:04;;;;;;;38.47;5.25;;;6.40;99.90;;;;;;4974655;28;20039;-69
2023/01/12 03:37:43;;;;;;;48.15;6.03;;;6.40;99.90;;;;;;4975000;28;20521;-69
2023/01/12 03:40:22;;;;;;;41.92;5.30;;;6.40;99.90;;;;;;4974913;28;20101;-69
2023/01/12 03:43:09;;;;;;;53.15;6.65;;;6.40;99.90;;;;;;4974595;28;20054;-69
2023/01/12 03:46:01;;;;;;;37.70;5.53;;;6.40;99.90;;;;;;4974671;28;20387;-70
2023/01/12 03:48:37;;;;;;;40.85;5.50;;;6.50;99.90;;;;;;4974907;28;20034;-69
2023/01/12 03:51:14;;;;;;;50.40;6.40;;;6.50;99.90;;;;;;4974358;28;20035;-69
2023/01/12 03:53:41;;;;;;;41.20;6.10;;;6.50;99.90;;;;;;4974847;28;20415;-69
2023/01/12 03:56:10;;;;;;;46.20;5.25;;;6.50;99.90;;;;;;4973634;28;20442;-69
2023/01/12 03:58:36;;;;;;;31.33;4.72;;;6.50;99.90;;;;;;4974688;28;20384;-69
2023/01/12 04:01:03;;;;;;;37.53;5.10;;;6.50;99.90;;;;;;4974442;28;20499;-69
2023/01/12 04:03:28;;;;;;;35.72;4.82;;;6.40;99.90;;;;;;4974693;28;20031;-69
2023/01/12 04:05:54;;;;;;;39.40;5.28;;;6.40;99.90;;;;;;4974344;28;20073;-69
2023/01/12 04:08:20;;;;;;;51.65;6.43;;;6.50;99.90;;;;;;4974339;28;20026;-69
2023/01/12 04:10:45;;;;;;;65.55;6.45;;;6.40;99.90;;;;;;4974323;28;20023;-69
2023/01/12 04:13:11;;;;;;;54.40;6.80;;;6.40;99.90;;;;;;4974863;28;20035;-69
2023/01/12 04:15:41;;;;;;;46.22;5.40;;;6.50;99.90;;;;;;4974174;28;20038;-69
2023/01/12 04:18:08;;;;;;;51.72;6.38;;;6.40;99.90;;;;;;4963453;28;20027;-70
2023/01/12 04:20:33;;;;;;;59.97;7.22;;;6.40;99.90;;;;;;4956348;28;20128;-70
2023/01/12 04:22:59;;;;;;;67.43;7.05;;;6.50;99.90;;;;;;4973865;28;20123;-70
2023/01/12 04:25:25;;;;;;;64.32;7.32;;;6.50;99.90;;;;;;4973691;28;20031;-70
2023/01/12 04:28:02;;;;;;;56.13;6.50;;;6.50;99.90;;;;;;4974364;28;20019;-70
2023/01/12 04:30:30;;;;;;;51.00;6.43;;;6.50;99.90;;;;;;4974506;28;20042;-70
2023/01/12 04:32:56;;;;;;;53.75;6.50;;;6.50;99.90;;;;;;4974182;28;20501;-69
2023/01/12 04:35:23;;;;;;;56.20;7.45;;;6.50;99.90;;;;;;4974049;28;20027;-70
2023/01/12 04:37:49;;;;;;;67.03;8.00;;;6.50;99.90;;;;;;4973997;28;20031;-71
2023/01/12 04:40:15;;;;;;;54.05;7.13;;;6.50;99.90;;;;;;4974088;28;20118;-70
2023/01/12 04:43:03;;;;;;;50.85;7.15;;;6.50;99.90;;;;;;4974264;28;20097;-70
2023/01/12 04:45:33;;;;;;;46.65;5.75;;;6.50;99.90;;;;;;4973979;28;20025;-70
2023/01/12 04:48:04;;;;;;;50.63;6.03;;;6.50;99.90;;;;;;4974028;28;20101;-70
2023/01/12 04:50:30;;;;;;;46.30;7.60;;;6.60;99.90;;;;;;4973599;28;20170;-70
2023/01/12 04:52:56;;;;;;;43.90;6.00;;;6.50;99.90;;;;;;4973960;28;20098;-70
2023/01/12 04:55:21;;;;;;;67.28;9.23;;;6.50;99.90;;;;;;4973587;28;20027;-70
2023/01/12 04:57:47;;;;;;;56.58;6.63;;;6.50;99.90;;;;;;4972489;28;20027;-70
2023/01/12 05:00:14;;;;;;;60.70;8.25;;;6.50;99.90;;;;;;4974292;28;20031;-70
2023/01/12 05:02:39;;;;;;;73.00;8.90;;;6.50;99.90;;;;;;4977376;28;20033;-70
2023/01/12 05:05:07;;;;;;;65.28;8.68;;;6.40;99.90;;;;;;4977385;28;20035;-70
2023/01/12 05:07:32;;;;;;;60.63;6.00;;;6.40;99.90;;;;;;4977461;28;20046;-70
2023/01/12 05:12:43;;;;;;;38.00;5.50;;;6.40;99.90;;;;;;4977415;28;20097;-70
2023/01/12 05:15:09;;;;;;;45.17;6.25;;;6.40;99.90;;;;;;4977214;28;20038;-70
2023/01/12 05:17:34;;;;;;;55.10;5.43;;;6.40;99.90;;;;;;4977193;28;20089;-70
2023/01/12 05:20:00;;;;;;;43.40;6.40;;;6.30;99.90;;;;;;4977179;28;20034;-70
2023/01/12 05:22:25;;;;;;;42.45;5.90;;;6.30;99.90;;;;;;4976634;28;20031;-70
2023/01/12 05:24:51;;;;;;;38.53;6.22;;;6.40;99.90;;;;;;4976889;28;20513;-70
2023/01/12 05:27:17;;;;;;;49.80;6.93;;;6.40;99.90;;;;;;4977575;28;20030;-69
2023/01/12 05:29:42;;;;;;;39.97;6.25;;;6.40;99.90;;;;;;4976883;28;20027;-70
2023/01/12 05:32:08;;;;;;;49.53;6.53;;;6.40;99.90;;;;;;4976809;28;20037;-70
2023/01/12 05:34:33;;;;;;;56.80;7.07;;;6.40;99.90;;;;;;4976554;28;20034;-70
2023/01/12 05:36:59;;;;;;;46.53;6.85;;;6.40;99.90;;;;;;4976744;28;20026;-70
2023/01/12 05:39:24;;;;;;;41.78;6.20;;;6.50;99.90;;;;;;4977107;28;20034;-70
2023/01/12 05:44:34;;;;;;;43.20;6.00;;;6.50;99.90;;;;;;4976710;28;20033;-70
2023/01/12 05:47:00;;;;;;;66.55;8.32;;;6.40;99.90;;;;;;4976692;28;20022;-70
2023/01/12 05:49:25;;;;;;;43.92;6.07;;;6.50;99.90;;;;;;4976544;28;20027;-70
2023/01/12 05:51:51;;;;;;;38.13;5.78;;;6.50;99.90;;;;;;4976621;28;20101;-70
2023/01/12 05:54:16;;;;;;;40.25;6.20;;;6.50;99.90;;;;;;4976417;28;20402;-70
2023/01/12 05:56:42;;;;;;;48.70;5.85;;;6.60;99.90;;;;;;4976498;28;20033;-70
2023/01/12 05:59:10;;;;;;;50.85;6.65;;;6.60;99.90;;;;;;4976751;28;20027;-70
2023/01/12 06:01:36;;;;;;;51.72;7.20;;;6.60;99.90;;;;;;4975139;28;20137;-70
2023/01/12 06:04:01;;;;;;;41.70;6.60;;;6.70;99.90;;;;;;4976604;28;20490;-70
2023/01/12 06:06:31;;;;;;;41.53;5.45;;;6.60;99.90;;;;;;4976071;28;20026;-70
2023/01/12 06:08:58;;;;;;;36.42;5.13;;;6.70;99.90;;;;;;4976588;28;20085;-70
2023/01/12 06:14:09;;;;;;;42.55;5.43;;;6.70;99.90;;;;;;4975761;28;20033;-70
2023/01/12 06:16:37;;;;;;;38.17;5.65;;;6.70;99.90;;;;;;4976203;28;20023;-70
2023/01/12 06:19:03;;;;;;;42.15;6.70;;;6.70;99.90;;;;;;4976099;28;20041;-70
2023/01/12 06:21:31;;;;;;;29.73;5.70;;;6.70;99.90;;;;;;4976055;28;20027;-70
2023/01/12 06:23:56;;;;;;;47.47;5.85;;;6.70;99.90;;;;;;4975917;28;20019;-71
2023/01/12 06:26:22;;;;;;;40.80;5.32;;;6.80;99.90;;;;;;4976043;28;20038;-70
2023/01/12 06:28:47;;;;;;;47.97;7.45;;;6.80;99.90;;;;;;4975934;28;20026;-70
2023/01/12 06:31:13;;;;;;;39.88;7.80;;;6.80;99.90;;;;;;4975915;28;20506;-70
2023/01/12 06:33:40;;;;;;;39.72;5.80;;;6.80;99.90;;;;;;4975862;28;20061;-70
2023/01/12 06:36:06;;;;;;;33.63;5.95;;;6.90;99.90;;;;;;4975864;28;20516;-70
2023/01/12 06:38:33;;;;;;;31.77;6.90;;;6.90;99.90;;;;;;4974420;28;20057;-71
2023/01/12 06:41:07;;;;;;;31.40;5.45;;;6.90;99.90;;;;;;4975676;28;20065;-70
2023/01/12 06:43:33;;;;;;;34.88;5.43;;;6.90;99.90;;;;;;4975882;28;20039;-70
2023/01/12 06:45:59;;;;;;;33.35;5.65;;;6.90;99.90;;;;;;4975546;28;20027;-70
2023/01/12 06:48:25;;;;;;;37.25;6.30;;;6.80;99.90;;;;;;4975608;28;20018;-70
2023/01/12 06:51:02;;;;;;;32.05;5.65;;;6.90;99.90;;;;;;4975506;28;20034;-70
2023/01/12 06:53:27;;;;;;;45.03;6.57;;;6.90;99.90;;;;;;4975479;28;20491;-71
2023/01/12 06:55:53;;;;;;;35.97;6.10;;;6.90;99.90;;;;;;4975347;28;20066;-70
2023/01/12 06:58:18;;;;;;;19.95;5.57;;;6.90;99.90;;;;;;4975350;28;20031;-70
2023/01/12 07:00:44;;;;;;;40.80;7.22;;;6.90;99.90;;;;;;4975857;28;20029;-70
2023/01/12 07:03:17;;;;;;;32.63;7.45;;;6.90;99.90;;;;;;4975143;28;20058;-71
2023/01/12 07:05:42;;;;;;;35.30;6.13;;;6.90;99.90;;;;;;4974995;28;20046;-71
2023/01/12 07:08:09;;;;;;;22.17;6.38;;;6.90;99.90;;;;;;4975475;28;20069;-70
2023/01/12 07:10:36;;;;;;;33.80;7.95;;;6.90;99.90;;;;;;4975680;28;20026;-70
2023/01/12 07:13:02;;;;;;;31.38;7.28;;;6.90;99.90;;;;;;4975366;28;20114;-70
2023/01/12 07:15:28;;;;;;;20.17;7.47;;;6.90;99.90;;;;;;4974964;28;20117;-70
2023/01/12 07:17:57;;;;;;;22.05;7.50;;;6.90;99.90;;;;;;4975009;28;20027;-70
2023/01/12 07:20:23;;;;;;;23.10;8.00;;;6.90;99.90;;;;;;4973735;28;20081;-70
2023/01/12 07:22:49;;;;;;;18.17;7.72;;;6.90;99.90;;;;;;4974460;28;20037;-71
2023/01/12 07:25:15;;;;;;;27.60;8.30;;;7.00;99.90;;;;;;4974204;28;20105;-70
2023/01/12 07:27:48;;;;;;;26.75;8.48;;;7.00;99.90;;;;;;4974882;28;20046;-71
2023/01/12 07:30:14;;;;;;;18.58;9.07;;;6.90;99.90;;;;;;4974874;28;20019;-72
2023/01/12 07:32:39;;;;;;;30.63;9.35;;;6.90;99.90;;;;;;4974972;28;20042;-72
2023/01/12 07:35:05;;;;;;;28.88;8.95;;;7.00;99.90;;;;;;4974467;28;20031;-71
2023/01/12 07:37:31;;;;;;;25.20;9.00;;;7.00;99.90;;;;;;4974691;28;20058;-71
2023/01/12 07:39:56;;;;;;;25.70;9.50;;;7.10;99.90;;;;;;4974696;28;20038;-71
2023/01/12 07:42:22;;;;;;;24.40;9.38;;;7.10;99.90;;;;;;4974827;28;20098;-70
2023/01/12 07:44:47;;;;;;;16.70;8.93;;;7.10;99.90;;;;;;4974429;28;20421;-71
2023/01/12 07:47:13;;;;;;;25.70;9.07;;;7.10;99.90;;;;;;4974576;28;20388;-70
2023/01/12 07:49:38;;;;;;;21.63;10.18;;;7.10;99.90;;;;;;4974613;28;20490;-71
2023/01/12 07:52:04;;;;;;;22.35;9.63;;;7.10;99.90;;;;;;4974438;28;20033;-71
2023/01/12 07:54:30;;;;;;;21.73;8.85;;;7.10;99.90;;;;;;4974766;28;20109;-71
2023/01/12 07:56:56;;;;;;;20.75;8.98;;;7.20;99.90;;;;;;4974733;28;20483;-72
2023/01/12 07:59:22;;;;;;;20.63;10.10;;;7.20;99.90;;;;;;4974997;28;20019;-70
2023/01/12 08:01:47;;;;;;;18.80;8.68;;;7.20;99.90;;;;;;4974342;28;20395;-71
2023/01/12 08:04:13;;;;;;;23.00;8.45;;;7.20;99.90;;;;;;4974194;28;20030;-71
2023/01/12 08:06:38;;;;;;;22.60;8.82;;;7.20;99.90;;;;;;4974613;28;20489;-72
2023/01/12 08:09:04;;;;;;;16.58;7.72;;;7.20;99.90;;;;;;4973880;28;20034;-72
2023/01/12 08:11:30;;;;;;;21.05;8.07;;;7.20;99.90;;;;;;4974328;28;20026;-72
2023/01/12 08:13:56;;;;;;;16.38;7.20;;;7.30;99.90;;;;;;4974342;28;20030;-72
2023/01/12 08:16:30;;;;;;;15.15;6.13;;;7.30;99.90;;;;;;4997194;23;20392;-69
2023/01/12 08:19:08;;;;;;;13.43;6.20;;;7.20;99.90;;;;;;4973999;28;20035;-69
2023/01/12 08:21:44;;;;;;;17.65;6.15;;;7.30;99.90;;;;;;4974517;28;20399;-69
2023/01/12 08:24:09;;;;;;;11.77;5.25;;;7.20;99.90;;;;;;4974560;28;20038;-69
2023/01/12 08:26:39;;;;;;;7.97;5.00;;;7.20;99.90;;;;;;4974531;28;20027;-69
2023/01/12 08:29:12;;;;;;;17.10;5.20;;;7.20;99.90;;;;;;4974695;28;20015;-69
2023/01/12 08:31:38;;;;;;;7.78;4.50;;;7.30;99.90;;;;;;4974351;28;20077;-69
2023/01/12 08:34:06;;;;;;;10.40;4.35;;;7.30;99.90;;;;;;4974175;28;20027;-69
2023/01/12 08:36:32;;;;;;;7.13;3.55;;;7.30;99.90;;;;;;4976837;28;20037;-69
2023/01/12 08:39:00;;;;;;;7.80;3.58;;;7.20;99.90;;;;;;4978163;28;20039;-69
2023/01/12 08:41:32;;;;;;;9.25;4.13;;;7.30;99.90;;;;;;4977953;28;20031;-69
2023/01/12 08:44:02;;;;;;;7.68;3.15;;;7.30;99.90;;;;;;4978198;28;20471;-69
2023/01/12 08:46:45;;;;;;;6.97;2.72;;;7.30;99.90;;;;;;4977889;28;20054;-69
2023/01/12 08:49:12;;;;;;;7.95;2.40;;;7.30;99.90;;;;;;4978124;28;20033;-69
2023/01/12 08:51:38;;;;;;;4.53;1.88;;;7.30;99.90;;;;;;4978222;28;20058;-69
2023/01/12 08:54:05;;;;;;;6.88;1.95;;;7.30;99.90;;;;;;4978043;28;20035;-69
2023/01/12 08:56:31;;;;;;;4.40;1.55;;;7.40;99.90;;;;;;4977895;28;20018;-69
2023/01/12 08:58:56;;;;;;;2.83;1.33;;;7.40;99.90;;;;;;4976744;28;20482;-69
2023/01/12 09:01:22;;;;;;;6.47;1.85;;;7.40;99.90;;;;;;4977740;28;20046;-69
2023/01/12 09:03:48;;;;;;;12.80;1.77;;;7.50;99.90;;;;;;4977879;28;20045;-69
2023/01/12 09:06:20;;;;;;;4.03;1.58;;;7.50;99.90;;;;;;4977743;28;20027;-69
2023/01/12 09:08:46;;;;;;;4.22;1.58;;;7.50;99.90;;;;;;4977549;28;20479;-69
2023/01/12 09:11:14;;;;;;;4.95;1.80;;;7.60;99.90;;;;;;4977580;28;20027;-69
2023/01/12 09:13:39;;;;;;;9.07;1.17;;;7.60;99.90;;;;;;4976411;28;20113;-69
2023/01/12 09:16:10;;;;;;;4.05;1.63;;;7.70;99.90;;;;;;4977342;28;20527;-69
2023/01/12 09:18:36;;;;;;;11.07;1.52;;;7.70;99.90;;;;;;4978198;28;20077;-69
2023/01/12 09:21:14;;;;;;;2.58;1.10;;;7.70;99.90;;;;;;4977586;28;20098;-68
2023/01/12 09:23:40;;;;;;;12.93;1.50;;;7.80;99.90;;;;;;4969068;28;20028;-69
2023/01/12 09:26:07;;;;;;;3.38;1.10;;;7.80;99.90;;;;;;4958076;28;20034;-68
2023/01/12 09:28:33;;;;;;;13.23;1.42;;;7.80;99.90;;;;;;4958015;28;20031;-69
2023/01/12 09:31:07;;;;;;;4.75;1.25;;;7.80;99.90;;;;;;4958069;28;20038;-69
2023/01/12 09:33:34;;;;;;;11.02;1.42;;;7.80;99.90;;;;;;4958817;28;20034;-69
2023/01/12 09:36:05;;;;;;;16.60;1.20;;;7.80;99.90;;;;;;4977199;28;20106;-69
2023/01/12 09:38:31;;;;;;;9.95;1.60;;;7.90;99.90;;;;;;4977411;28;20022;-69
2023/01/12 09:41:00;;;;;;;10.48;1.38;;;7.90;99.90;;;;;;4977259;28;20507;-69
2023/01/12 09:49:05;;;;;;;7.80;2.15;;;8.00;99.90;;;;;;4976763;28;20099;-68
2023/01/12 09:51:37;;;;;;;9.85;2.30;;;8.10;99.90;;;;;;4976836;28;20036;-68
2023/01/12 09:54:04;;;;;;;20.00;2.50;;;8.20;99.90;;;;;;4977512;28;20467;-68
2023/01/12 09:56:33;;;;;;;8.10;2.08;;;8.30;99.90;;;;;;4977180;28;20364;-68
2023/01/12 09:59:22;;;;;;;8.65;1.95;;;8.30;99.90;;;;;;4976906;28;20027;-68
2023/01/12 10:01:51;;;;;;;26.63;4.45;;;8.40;99.90;;;;;;4976676;28;20535;-68
2023/01/12 10:04:17;;;;;;;28.65;3.65;;;8.50;99.90;;;;;;4976645;28;20019;-68
2023/01/12 10:06:42;;;;;;;44.92;5.05;;;8.50;99.90;;;;;;4976727;28;20110;-68
2023/01/12 10:09:15;;;;;;;50.75;6.47;;;8.60;99.90;;;;;;4976801;28;20081;-68
2023/01/12 10:12:05;;;;;;;39.90;6.87;;;8.60;99.90;;;;;;4976980;28;20026;-68
2023/01/12 10:14:33;;;;;;;50.95;7.03;;;8.60;99.90;;;;;;4976298;28;20031;-68
2023/01/12 10:17:19;;;;;;;74.13;8.88;;;8.60;99.90;;;;;;4976182;28;20034;-67
2023/01/12 10:20:17;;;;;;;67.85;7.95;;;8.60;99.90;;;;;;4976510;28;20027;-67
2023/01/12 10:22:52;;;;;;;76.10;9.25;;;8.60;99.90;;;;;;4976211;28;20030;-68
2023/01/12 10:25:27;;;;;;;89.35;11.85;;;8.60;99.90;;;;;;4976531;28;20046;-68
2023/01/12 10:27:56;;;;;;;88.15;10.82;;;8.60;99.90;;;;;;4976804;28;20015;-68
2023/01/12 10:30:33;;;;;;;88.88;11.25;;;8.70;99.90;;;;;;4976376;28;20037;-68
2023/01/12 10:33:20;;;;;;;112.90;12.25;;;8.70;99.90;;;;;;4976403;28;20027;-68
2023/01/12 10:35:50;;;;;;;101.10;12.93;;;8.80;99.90;;;;;;4957287;28;20027;-68
2023/01/12 10:38:55;;;;;;;89.47;11.90;;;8.80;99.90;;;;;;4956784;28;20035;-68
2023/01/12 10:41:31;;;;;;;86.05;12.32;;;8.80;99.90;;;;;;4950820;28;20063;-68
2023/01/12 10:43:59;;;;;;;101.30;14.05;;;8.70;99.90;;;;;;4961921;28;20014;-68
2023/01/12 10:46:27;;;;;;;96.28;11.30;;;8.80;99.90;;;;;;4975964;28;20026;-68
2023/01/12 10:49:08;;;;;;;91.10;11.70;;;8.80;99.90;;;;;;4976170;28;20537;-68
2023/01/12 10:51:35;;;;;;;90.07;10.68;;;8.90;99.90;;;;;;4976085;28;20023;-68
2023/01/12 10:54:08;;;;;;;91.22;10.88;;;8.90;99.90;;;;;;4976012;28;20415;-68
2023/01/12 10:56:41;;;;;;;106.75;11.98;;;8.90;99.90;;;;;;4975839;28;20030;-68
2023/01/12 10:59:18;;;;;;;68.43;8.93;;;8.90;99.90;;;;;;4975380;28;20037;-68
2023/01/12 11:02:08;;;;;;;111.47;12.85;;;8.90;99.90;;;;;;4975960;28;20150;-68
2023/01/12 11:04:40;;;;;;;114.30;12.98;;;9.00;99.90;;;;;;4975620;28;20482;-68
2023/01/12 11:07:14;;;;;;;119.30;14.32;;;8.90;99.90;;;;;;4975393;28;20023;-68
2023/01/12 11:09:43;;;;;;;119.50;13.43;;;8.90;99.90;;;;;;4975460;28;20031;-68
2023/01/12 11:12:33;;;;;;;139.38;13.70;;;8.90;99.90;;;;;;4975388;28;20031;-68
2023/01/12 11:15:08;;;;;;;128.57;15.98;;;9.00;99.90;;;;;;4975533;28;20041;-68
2023/01/12 11:17:49;;;;;;;91.95;12.32;;;9.00;99.90;;;;;;4975690;28;20368;-68
2023/01/12 11:20:49;;;;;;;108.68;13.27;;;9.00;99.90;;;;;;4974089;28;20085;-68
2023/01/12 11:23:23;;;;;;;122.85;12.70;;;9.00;99.90;;;;;;4972102;28;20407;-68
2023/01/12 11:25:51;;;;;;;128.48;14.38;;;9.00;99.90;;;;;;4975380;28;20050;-68
2023/01/12 11:28:19;;;;;;;125.57;15.95;;;9.00;99.90;;;;;;4975513;28;20033;-68
2023/01/12 11:30:55;;;;;;;90.20;12.70;;;9.00;99.90;;;;;;4975633;28;20097;-68
2023/01/12 11:33:30;;;;;;;108.65;12.50;;;9.00;99.90;;;;;;4975201;28;20483;-68
2023/01/12 11:36:05;;;;;;;108.53;12.07;;;8.90;99.90;;;;;;4975340;28;20031;-68
2023/01/12 11:38:39;;;;;;;75.45;11.25;;;8.90;99.90;;;;;;4975115;28;20027;-68
2023/01/12 11:41:09;;;;;;;109.70;12.27;;;8.90;99.90;;;;;;4975268;28;20050;-68
2023/01/12 11:43:57;;;;;;;104.65;12.10;;;8.90;99.90;;;;;;4974863;28;20035;-67
2023/01/12 11:46:27;;;;;;;110.07;12.07;;;8.80;99.90;;;;;;4974897;28;20023;-67
2023/01/12 11:48:56;;;;;;;89.47;11.25;;;8.80;99.90;;;;;;4975243;28;20078;-68
2023/01/12 11:51:21;;;;;;;95.28;13.10;;;8.70;99.90;;;;;;4974728;28;20023;-68
2023/01/12 11:53:47;;;;;;;100.38;12.05;;;8.70;99.90;;;;;;4974975;28;20033;-68
2023/01/12 11:56:29;;;;;;;105.28;12.13;;;8.70;99.90;;;;;;4974750;28;20030;-68
2023/01/12 11:59:10;;;;;;;111.80;11.82;;;8.70;99.90;;;;;;4975180;28;20025;-68
2023/01/12 12:01:39;;;;;;;104.93;12.05;;;8.60;99.90;;;;;;4974961;28;20368;-68
2023/01/12 12:04:26;;;;;;;105.65;13.27;;;8.60;99.90;;;;;;4974636;28;20037;-68
2023/01/12 12:07:07;;;;;;;103.35;11.48;;;8.60;99.90;;;;;;4996920;23;20054;-68
2023/01/12 12:10:00;;;;;;;93.53;10.57;;;8.60;99.90;;;;;;4994802;28;20030;-68
2023/01/12 12:13:01;;;;;;;101.82;12.27;;;8.50;99.90;;;;;;4998227;28;20030;-68
2023/01/12 12:15:44;;;;;;;111.53;15.98;;;8.50;99.90;;;;;;4975536;28;20399;-68
2023/01/12 12:18:33;;;;;;;92.47;11.37;;;8.50;99.90;;;;;;4961747;28;20043;-68
2023/01/12 12:21:14;;;;;;;79.57;9.70;;;8.50;99.90;;;;;;4966682;28;20363;-68
2023/01/12 12:23:59;;;;;;;95.22;11.20;;;8.40;99.90;;;;;;4981004;28;20086;-68
2023/01/12 12:26:43;;;;;;;86.95;8.38;;;8.40;99.90;;;;;;4969897;28;20063;-68
2023/01/12 12:29:30;;;;;;;70.43;10.50;;;8.40;99.90;;;;;;4981287;28;20106;-68
2023/01/12 12:32:53;;;;;;;63.38;9.80;;;8.40;99.90;;;;;;4981378;28;20027;-68
2023/01/12 12:35:45;;;;;;;82.40;9.27;;;8.40;99.90;;;;;;4968487;28;20510;-68
2023/01/12 12:38:23;;;;;;;53.70;7.18;;;8.30;99.90;;;;;;4981135;28;20031;-68
2023/01/12 12:47:37;;;;;;;45.55;5.53;;;8.20;99.90;;;;;;4980688;28;20097;-68
2023/01/12 12:50:10;;;;;;;30.70;3.80;;;8.20;99.90;;;;;;4980571;28;20426;-68
2023/01/12 12:52:36;;;;;;;23.58;3.58;;;8.30;99.90;;;;;;4980558;28;20081;-68
2023/01/12 12:55:03;;;;;;;36.53;4.40;;;8.30;99.90;;;;;;4980956;28;20023;-68
2023/01/12 12:57:29;;;;;;;24.13;3.45;;;8.30;99.90;;;;;;4979448;28;20482;-68
2023/01/12 12:59:58;;;;;;;36.78;4.35;;;8.30;99.90;;;;;;4979081;28;20055;-68
2023/01/12 13:02:37;;;;;;;26.55;3.67;;;8.30;99.90;;;;;;4980841;28;20058;-68
2023/01/12 13:05:05;;;;;;;14.82;2.72;;;8.20;99.90;;;;;;4980679;28;20073;-68
2023/01/12 13:07:35;;;;;;;10.38;2.30;;;8.30;99.90;;;;;;4979671;28;20034;-68
2023/01/12 13:10:25;;;;;;;20.60;2.60;;;8.20;99.90;;;;;;4980525;28;20034;-68
2023/01/12 13:13:03;;;;;;;15.93;2.47;;;8.20;99.90;;;;;;4980886;28;20581;-68
2023/01/12 13:15:35;;;;;;;18.52;2.03;;;8.10;99.90;;;;;;4980557;28;20034;-68
2023/01/12 13:18:02;;;;;;;6.18;1.80;;;8.00;99.90;;;;;;4979279;28;20513;-68
2023/01/12 13:20:50;;;;;;;13.73;2.03;;;8.00;99.90;;;;;;4980410;28;20058;-68
2023/01/12 13:23:43;;;;;;;15.23;1.58;;;8.00;99.90;;;;;;4976146;28;20380;-68
2023/01/12 13:26:31;;;;;;;6.88;1.23;;;8.00;99.90;;;;;;4977553;28;20027;-68
2023/01/12 13:29:23;;;;;;;21.55;2.75;;;8.00;99.90;;;;;;4977422;28;20023;-68
2023/01/12 13:32:30;;;;;;;13.80;2.22;;;7.90;99.90;;;;;;4968376;28;20506;-68
2023/01/12 13:34:56;;;;;;;17.98;2.33;;;7.90;99.90;;;;;;4960734;28;20042;-68
2023/01/12 13:37:43;;;;;;;21.30;2.28;;;7.90;99.90;;;;;;4977912;28;20030;-68
2023/01/12 13:40:24;;;;;;;18.30;2.88;;;7.90;99.90;;;;;;4977637;28;20101;-68